Weather at La Comina Airfield

Public forecast

Using degrees Celsius for public forecast. Weather courtesy of forecast.io.

Closest aviation weather report (METAR) to La Comina Airfield

Closest report is Aviano Air Base, 3.4 nm (6.3 km) NW.

2024/07/17 13:55 (retrieved 29 minutes ago)

LIPA 171355Z 03003KT 9999 FEW070 33/22 Q1014

Closest aviation forecast (TAF) to La Comina Airfield

Closest forecast is Treviso Antonio Canova Airport, 28.2 nm (52.2 km) SW.

2024/07/17 12:00 (retrieved 2 hours ago)

TAF LIPH 171100Z 1712/1812 05006KT 9999 FEW060